﻿<?xml version="1.0" encoding="UTF-8" standalone="no" ?>
<gpx xmlns="http://www.topografix.com/GPX/1/1" creator="CompeGPS" version="1.1" xmlns:xsi="http://www.w3.org/2001/XMLSchema-instance" xsi:schemaLocation="http://www.topografix.com/GPX/1/1 http://www.topografix.com/GPX/1/1/gpx.xsd http://www.garmin.com/xmlschemas/GpxExtensions/v3 http://www.garmin.com/xmlschemas/GpxExtensionsv3.xsd http://www.garmin.com/xmlschemas/TrackPointExtension/v1 http://www.garmin.com/xmlschemas/TrackPointExtensionv1.xsd" xmlns:gpxtpx="http://www.garmin.com/xmlschemas/TrackPointExtension/v1">
  <metadata>
    <link href="http://www.compegps.com">
      <text>CompeGPS TEAM, SL</text>
    </link>
    <time>2020-08-03T14:04:04Z</time>
    <bounds maxlat="44.955125" maxlon="6.411814" minlat="44.937410" minlon="6.392520"/>
  </metadata>
  <trk>
    <name>Rando_245-1</name>
    <trkseg>
      <trkpt lat="44.937578" lon="6.411587">
        <ele>2591.0</ele>
        <time>2020-07-08T07:48:04Z</time>
      </trkpt>
      <trkpt lat="44.937497" lon="6.411622">
        <ele>2593.5</ele>
        <time>2020-07-08T07:48:11Z</time>
      </trkpt>
      <trkpt lat="44.937417" lon="6.411570">
        <ele>2593.0</ele>
        <time>2020-07-08T07:48:19Z</time>
      </trkpt>
      <trkpt lat="44.937657" lon="6.411567">
        <ele>2590.3</ele>
        <time>2020-07-08T08:10:29Z</time>
      </trkpt>
      <trkpt lat="44.937565" lon="6.411548">
        <ele>2590.3</ele>
        <time>2020-07-08T08:10:42Z</time>
      </trkpt>
      <trkpt lat="44.937488" lon="6.411507">
        <ele>2590.1</ele>
        <time>2020-07-08T08:10:50Z</time>
      </trkpt>
      <trkpt lat="44.937410" lon="6.411572">
        <ele>2592.6</ele>
        <time>2020-07-08T08:12:10Z</time>
      </trkpt>
      <trkpt lat="44.937475" lon="6.411495">
        <ele>2590.5</ele>
        <time>2020-07-08T08:12:23Z</time>
      </trkpt>
      <trkpt lat="44.937555" lon="6.411513">
        <ele>2587.8</ele>
        <time>2020-07-08T08:12:31Z</time>
      </trkpt>
      <trkpt lat="44.937635" lon="6.411473">
        <ele>2584.3</ele>
        <time>2020-07-08T08:12:42Z</time>
      </trkpt>
      <trkpt lat="44.937710" lon="6.411433">
        <ele>2582.4</ele>
        <time>2020-07-08T08:12:51Z</time>
      </trkpt>
      <trkpt lat="44.937787" lon="6.411488">
        <ele>2579.7</ele>
        <time>2020-07-08T08:13:06Z</time>
      </trkpt>
      <trkpt lat="44.937873" lon="6.411463">
        <ele>2580.1</ele>
        <time>2020-07-08T08:13:20Z</time>
      </trkpt>
      <trkpt lat="44.937957" lon="6.411468">
        <ele>2581.8</ele>
        <time>2020-07-08T08:13:35Z</time>
      </trkpt>
      <trkpt lat="44.938033" lon="6.411405">
        <ele>2584.3</ele>
        <time>2020-07-08T08:13:54Z</time>
      </trkpt>
      <trkpt lat="44.938120" lon="6.411395">
        <ele>2588.2</ele>
        <time>2020-07-08T08:14:18Z</time>
      </trkpt>
      <trkpt lat="44.938173" lon="6.411492">
        <ele>2590.4</ele>
        <time>2020-07-08T08:14:40Z</time>
      </trkpt>
      <trkpt lat="44.938260" lon="6.411512">
        <ele>2592.1</ele>
        <time>2020-07-08T08:14:59Z</time>
      </trkpt>
      <trkpt lat="44.938345" lon="6.411538">
        <ele>2595.7</ele>
        <time>2020-07-08T08:15:23Z</time>
      </trkpt>
      <trkpt lat="44.938430" lon="6.411498">
        <ele>2597.4</ele>
        <time>2020-07-08T08:15:37Z</time>
      </trkpt>
      <trkpt lat="44.938515" lon="6.411507">
        <ele>2598.7</ele>
        <time>2020-07-08T08:15:51Z</time>
      </trkpt>
      <trkpt lat="44.938600" lon="6.411472">
        <ele>2601.1</ele>
        <time>2020-07-08T08:16:47Z</time>
      </trkpt>
      <trkpt lat="44.938688" lon="6.411485">
        <ele>2602.0</ele>
        <time>2020-07-08T08:16:59Z</time>
      </trkpt>
      <trkpt lat="44.938747" lon="6.411577">
        <ele>2604.3</ele>
        <time>2020-07-08T08:17:14Z</time>
      </trkpt>
      <trkpt lat="44.938825" lon="6.411625">
        <ele>2608.8</ele>
        <time>2020-07-08T08:17:33Z</time>
      </trkpt>
      <trkpt lat="44.938892" lon="6.411703">
        <ele>2611.6</ele>
        <time>2020-07-08T08:17:52Z</time>
      </trkpt>
      <trkpt lat="44.938973" lon="6.411742">
        <ele>2618.2</ele>
        <time>2020-07-08T08:18:15Z</time>
      </trkpt>
      <trkpt lat="44.939045" lon="6.411813">
        <ele>2621.6</ele>
        <time>2020-07-08T08:18:39Z</time>
      </trkpt>
      <trkpt lat="44.939117" lon="6.411742">
        <ele>2625.2</ele>
        <time>2020-07-08T08:18:59Z</time>
      </trkpt>
      <trkpt lat="44.939190" lon="6.411680">
        <ele>2630.3</ele>
        <time>2020-07-08T08:19:15Z</time>
      </trkpt>
      <trkpt lat="44.939270" lon="6.411682">
        <ele>2634.4</ele>
        <time>2020-07-08T08:19:57Z</time>
      </trkpt>
      <trkpt lat="44.939338" lon="6.411647">
        <ele>2636.9</ele>
        <time>2020-07-08T08:22:15Z</time>
      </trkpt>
      <trkpt lat="44.939425" lon="6.411653">
        <ele>2639.1</ele>
        <time>2020-07-08T08:22:42Z</time>
      </trkpt>
      <trkpt lat="44.939485" lon="6.411747">
        <ele>2638.4</ele>
        <time>2020-07-08T08:23:18Z</time>
      </trkpt>
      <trkpt lat="44.939572" lon="6.411737">
        <ele>2638.6</ele>
        <time>2020-07-08T08:23:34Z</time>
      </trkpt>
      <trkpt lat="44.939658" lon="6.411727">
        <ele>2639.5</ele>
        <time>2020-07-08T08:23:55Z</time>
      </trkpt>
      <trkpt lat="44.939735" lon="6.411672">
        <ele>2641.3</ele>
        <time>2020-07-08T08:24:12Z</time>
      </trkpt>
      <trkpt lat="44.939773" lon="6.411590">
        <ele>2643.0</ele>
        <time>2020-07-08T08:25:21Z</time>
      </trkpt>
      <trkpt lat="44.939848" lon="6.411528">
        <ele>2645.7</ele>
        <time>2020-07-08T08:25:37Z</time>
      </trkpt>
      <trkpt lat="44.939895" lon="6.411422">
        <ele>2648.9</ele>
        <time>2020-07-08T08:25:52Z</time>
      </trkpt>
      <trkpt lat="44.939963" lon="6.411350">
        <ele>2652.8</ele>
        <time>2020-07-08T08:26:10Z</time>
      </trkpt>
      <trkpt lat="44.940027" lon="6.411260">
        <ele>2656.1</ele>
        <time>2020-07-08T08:27:25Z</time>
      </trkpt>
      <trkpt lat="44.939950" lon="6.411197">
        <ele>2658.4</ele>
        <time>2020-07-08T08:27:40Z</time>
      </trkpt>
      <trkpt lat="44.939950" lon="6.411073">
        <ele>2663.5</ele>
        <time>2020-07-08T08:29:36Z</time>
      </trkpt>
      <trkpt lat="44.940007" lon="6.410982">
        <ele>2666.0</ele>
        <time>2020-07-08T08:29:53Z</time>
      </trkpt>
      <trkpt lat="44.940092" lon="6.410943">
        <ele>2669.3</ele>
        <time>2020-07-08T08:30:08Z</time>
      </trkpt>
      <trkpt lat="44.940165" lon="6.410878">
        <ele>2672.5</ele>
        <time>2020-07-08T08:30:21Z</time>
      </trkpt>
      <trkpt lat="44.940188" lon="6.410762">
        <ele>2672.3</ele>
        <time>2020-07-08T08:30:31Z</time>
      </trkpt>
      <trkpt lat="44.940267" lon="6.410727">
        <ele>2674.0</ele>
        <time>2020-07-08T08:30:42Z</time>
      </trkpt>
      <trkpt lat="44.940320" lon="6.410635">
        <ele>2674.6</ele>
        <time>2020-07-08T08:30:51Z</time>
      </trkpt>
      <trkpt lat="44.940385" lon="6.410558">
        <ele>2677.8</ele>
        <time>2020-07-08T08:31:06Z</time>
      </trkpt>
      <trkpt lat="44.940452" lon="6.410475">
        <ele>2680.9</ele>
        <time>2020-07-08T08:31:40Z</time>
      </trkpt>
      <trkpt lat="44.940477" lon="6.410357">
        <ele>2682.3</ele>
        <time>2020-07-08T08:31:58Z</time>
      </trkpt>
      <trkpt lat="44.940540" lon="6.410272">
        <ele>2683.1</ele>
        <time>2020-07-08T08:32:11Z</time>
      </trkpt>
      <trkpt lat="44.940570" lon="6.410160">
        <ele>2684.0</ele>
        <time>2020-07-08T08:32:26Z</time>
      </trkpt>
      <trkpt lat="44.940645" lon="6.410092">
        <ele>2686.2</ele>
        <time>2020-07-08T08:32:42Z</time>
      </trkpt>
      <trkpt lat="44.940725" lon="6.410042">
        <ele>2688.3</ele>
        <time>2020-07-08T08:33:01Z</time>
      </trkpt>
      <trkpt lat="44.940805" lon="6.409993">
        <ele>2690.7</ele>
        <time>2020-07-08T08:33:15Z</time>
      </trkpt>
      <trkpt lat="44.940888" lon="6.409967">
        <ele>2693.7</ele>
        <time>2020-07-08T08:33:30Z</time>
      </trkpt>
      <trkpt lat="44.940927" lon="6.409858">
        <ele>2693.5</ele>
        <time>2020-07-08T08:33:45Z</time>
      </trkpt>
      <trkpt lat="44.940953" lon="6.409745">
        <ele>2692.7</ele>
        <time>2020-07-08T08:34:00Z</time>
      </trkpt>
      <trkpt lat="44.940988" lon="6.409632">
        <ele>2694.0</ele>
        <time>2020-07-08T08:34:20Z</time>
      </trkpt>
      <trkpt lat="44.941017" lon="6.409520">
        <ele>2694.3</ele>
        <time>2020-07-08T08:34:36Z</time>
      </trkpt>
      <trkpt lat="44.941045" lon="6.409403">
        <ele>2696.1</ele>
        <time>2020-07-08T08:34:58Z</time>
      </trkpt>
      <trkpt lat="44.941112" lon="6.409318">
        <ele>2700.2</ele>
        <time>2020-07-08T08:35:17Z</time>
      </trkpt>
      <trkpt lat="44.941137" lon="6.409205">
        <ele>2701.5</ele>
        <time>2020-07-08T08:35:30Z</time>
      </trkpt>
      <trkpt lat="44.941195" lon="6.409112">
        <ele>2703.1</ele>
        <time>2020-07-08T08:35:40Z</time>
      </trkpt>
      <trkpt lat="44.941268" lon="6.409047">
        <ele>2705.3</ele>
        <time>2020-07-08T08:35:54Z</time>
      </trkpt>
      <trkpt lat="44.941345" lon="6.408992">
        <ele>2708.1</ele>
        <time>2020-07-08T08:36:09Z</time>
      </trkpt>
      <trkpt lat="44.941432" lon="6.408985">
        <ele>2712.5</ele>
        <time>2020-07-08T08:36:26Z</time>
      </trkpt>
      <trkpt lat="44.941488" lon="6.408890">
        <ele>2715.3</ele>
        <time>2020-07-08T08:36:38Z</time>
      </trkpt>
      <trkpt lat="44.941575" lon="6.408860">
        <ele>2716.5</ele>
        <time>2020-07-08T08:36:46Z</time>
      </trkpt>
      <trkpt lat="44.941648" lon="6.408818">
        <ele>2719.2</ele>
        <time>2020-07-08T08:37:16Z</time>
      </trkpt>
      <trkpt lat="44.941723" lon="6.408763">
        <ele>2723.2</ele>
        <time>2020-07-08T08:37:36Z</time>
      </trkpt>
      <trkpt lat="44.941795" lon="6.408693">
        <ele>2723.2</ele>
        <time>2020-07-08T08:37:50Z</time>
      </trkpt>
      <trkpt lat="44.941847" lon="6.408592">
        <ele>2722.9</ele>
        <time>2020-07-08T08:38:01Z</time>
      </trkpt>
      <trkpt lat="44.941895" lon="6.408487">
        <ele>2724.1</ele>
        <time>2020-07-08T08:38:14Z</time>
      </trkpt>
      <trkpt lat="44.941962" lon="6.408405">
        <ele>2723.9</ele>
        <time>2020-07-08T08:38:27Z</time>
      </trkpt>
      <trkpt lat="44.942025" lon="6.408320">
        <ele>2724.3</ele>
        <time>2020-07-08T08:38:40Z</time>
      </trkpt>
      <trkpt lat="44.942077" lon="6.408223">
        <ele>2724.4</ele>
        <time>2020-07-08T08:39:00Z</time>
      </trkpt>
      <trkpt lat="44.942115" lon="6.408112">
        <ele>2723.5</ele>
        <time>2020-07-08T08:39:21Z</time>
      </trkpt>
      <trkpt lat="44.942152" lon="6.407997">
        <ele>2722.2</ele>
        <time>2020-07-08T08:39:42Z</time>
      </trkpt>
      <trkpt lat="44.942178" lon="6.407878">
        <ele>2721.6</ele>
        <time>2020-07-08T08:39:59Z</time>
      </trkpt>
      <trkpt lat="44.942243" lon="6.407792">
        <ele>2723.2</ele>
        <time>2020-07-08T08:40:11Z</time>
      </trkpt>
      <trkpt lat="44.942315" lon="6.407730">
        <ele>2725.4</ele>
        <time>2020-07-08T08:40:22Z</time>
      </trkpt>
      <trkpt lat="44.942385" lon="6.407660">
        <ele>2726.8</ele>
        <time>2020-07-08T08:40:34Z</time>
      </trkpt>
      <trkpt lat="44.942455" lon="6.407583">
        <ele>2729.0</ele>
        <time>2020-07-08T08:40:50Z</time>
      </trkpt>
      <trkpt lat="44.942532" lon="6.407522">
        <ele>2730.7</ele>
        <time>2020-07-08T08:41:04Z</time>
      </trkpt>
      <trkpt lat="44.942602" lon="6.407597">
        <ele>2733.3</ele>
        <time>2020-07-08T08:41:39Z</time>
      </trkpt>
      <trkpt lat="44.942652" lon="6.407492">
        <ele>2734.4</ele>
        <time>2020-07-08T08:41:52Z</time>
      </trkpt>
      <trkpt lat="44.942703" lon="6.407395">
        <ele>2736.8</ele>
        <time>2020-07-08T08:42:05Z</time>
      </trkpt>
      <trkpt lat="44.942765" lon="6.407315">
        <ele>2738.4</ele>
        <time>2020-07-08T08:42:25Z</time>
      </trkpt>
      <trkpt lat="44.942808" lon="6.407212">
        <ele>2740.0</ele>
        <time>2020-07-08T08:42:38Z</time>
      </trkpt>
      <trkpt lat="44.942953" lon="6.406987">
        <ele>2745.7</ele>
        <time>2020-07-08T08:44:13Z</time>
      </trkpt>
      <trkpt lat="44.942987" lon="6.406872">
        <ele>2745.9</ele>
        <time>2020-07-08T08:44:28Z</time>
      </trkpt>
      <trkpt lat="44.942992" lon="6.406755">
        <ele>2746.1</ele>
        <time>2020-07-08T08:44:38Z</time>
      </trkpt>
      <trkpt lat="44.942975" lon="6.406633">
        <ele>2745.7</ele>
        <time>2020-07-08T08:44:49Z</time>
      </trkpt>
      <trkpt lat="44.942940" lon="6.406523">
        <ele>2743.6</ele>
        <time>2020-07-08T08:45:02Z</time>
      </trkpt>
      <trkpt lat="44.942965" lon="6.406410">
        <ele>2743.1</ele>
        <time>2020-07-08T08:45:36Z</time>
      </trkpt>
      <trkpt lat="44.943003" lon="6.406298">
        <ele>2742.0</ele>
        <time>2020-07-08T08:45:54Z</time>
      </trkpt>
      <trkpt lat="44.943073" lon="6.406225">
        <ele>2750.1</ele>
        <time>2020-07-08T09:05:59Z</time>
      </trkpt>
      <trkpt lat="44.943132" lon="6.406132">
        <ele>2751.8</ele>
        <time>2020-07-08T09:06:18Z</time>
      </trkpt>
      <trkpt lat="44.943197" lon="6.406045">
        <ele>2754.4</ele>
        <time>2020-07-08T09:06:40Z</time>
      </trkpt>
      <trkpt lat="44.943275" lon="6.405987">
        <ele>2757.9</ele>
        <time>2020-07-08T09:06:57Z</time>
      </trkpt>
      <trkpt lat="44.943358" lon="6.405943">
        <ele>2759.3</ele>
        <time>2020-07-08T09:07:12Z</time>
      </trkpt>
      <trkpt lat="44.943442" lon="6.405910">
        <ele>2763.0</ele>
        <time>2020-07-08T09:07:30Z</time>
      </trkpt>
      <trkpt lat="44.943513" lon="6.405842">
        <ele>2767.0</ele>
        <time>2020-07-08T09:08:09Z</time>
      </trkpt>
      <trkpt lat="44.943597" lon="6.405798">
        <ele>2770.6</ele>
        <time>2020-07-08T09:08:30Z</time>
      </trkpt>
      <trkpt lat="44.943678" lon="6.405748">
        <ele>2776.1</ele>
        <time>2020-07-08T09:08:50Z</time>
      </trkpt>
      <trkpt lat="44.943745" lon="6.405692">
        <ele>2780.1</ele>
        <time>2020-07-08T09:09:23Z</time>
      </trkpt>
      <trkpt lat="44.943790" lon="6.405587">
        <ele>2783.7</ele>
        <time>2020-07-08T09:09:50Z</time>
      </trkpt>
      <trkpt lat="44.943873" lon="6.405545">
        <ele>2788.4</ele>
        <time>2020-07-08T09:10:14Z</time>
      </trkpt>
      <trkpt lat="44.943947" lon="6.405475">
        <ele>2790.6</ele>
        <time>2020-07-08T09:10:53Z</time>
      </trkpt>
      <trkpt lat="44.944025" lon="6.405415">
        <ele>2793.5</ele>
        <time>2020-07-08T09:11:14Z</time>
      </trkpt>
      <trkpt lat="44.944095" lon="6.405337">
        <ele>2800.3</ele>
        <time>2020-07-08T09:11:32Z</time>
      </trkpt>
      <trkpt lat="44.944148" lon="6.405238">
        <ele>2804.5</ele>
        <time>2020-07-08T09:11:47Z</time>
      </trkpt>
      <trkpt lat="44.944230" lon="6.405207">
        <ele>2807.1</ele>
        <time>2020-07-08T09:12:09Z</time>
      </trkpt>
      <trkpt lat="44.944317" lon="6.405183">
        <ele>2809.4</ele>
        <time>2020-07-08T09:12:28Z</time>
      </trkpt>
      <trkpt lat="44.944405" lon="6.405175">
        <ele>2810.5</ele>
        <time>2020-07-08T09:12:37Z</time>
      </trkpt>
      <trkpt lat="44.944488" lon="6.405135">
        <ele>2811.8</ele>
        <time>2020-07-08T09:12:46Z</time>
      </trkpt>
      <trkpt lat="44.944558" lon="6.405057">
        <ele>2812.5</ele>
        <time>2020-07-08T09:12:55Z</time>
      </trkpt>
      <trkpt lat="44.944628" lon="6.405002">
        <ele>2813.8</ele>
        <time>2020-07-08T09:13:03Z</time>
      </trkpt>
      <trkpt lat="44.944700" lon="6.404930">
        <ele>2815.5</ele>
        <time>2020-07-08T09:13:11Z</time>
      </trkpt>
      <trkpt lat="44.944772" lon="6.404875">
        <ele>2814.9</ele>
        <time>2020-07-08T09:13:20Z</time>
      </trkpt>
      <trkpt lat="44.944833" lon="6.404783">
        <ele>2815.4</ele>
        <time>2020-07-08T09:13:30Z</time>
      </trkpt>
      <trkpt lat="44.944900" lon="6.404712">
        <ele>2816.5</ele>
        <time>2020-07-08T09:13:39Z</time>
      </trkpt>
      <trkpt lat="44.944972" lon="6.404657">
        <ele>2818.2</ele>
        <time>2020-07-08T09:13:48Z</time>
      </trkpt>
      <trkpt lat="44.945050" lon="6.404617">
        <ele>2819.9</ele>
        <time>2020-07-08T09:13:58Z</time>
      </trkpt>
      <trkpt lat="44.945128" lon="6.404568">
        <ele>2822.6</ele>
        <time>2020-07-08T09:14:09Z</time>
      </trkpt>
      <trkpt lat="44.945195" lon="6.404498">
        <ele>2825.0</ele>
        <time>2020-07-08T09:14:22Z</time>
      </trkpt>
      <trkpt lat="44.945278" lon="6.404473">
        <ele>2827.2</ele>
        <time>2020-07-08T09:14:37Z</time>
      </trkpt>
      <trkpt lat="44.945345" lon="6.404392">
        <ele>2829.9</ele>
        <time>2020-07-08T09:14:49Z</time>
      </trkpt>
      <trkpt lat="44.945408" lon="6.404312">
        <ele>2832.9</ele>
        <time>2020-07-08T09:15:00Z</time>
      </trkpt>
      <trkpt lat="44.945477" lon="6.404232">
        <ele>2835.7</ele>
        <time>2020-07-08T09:15:11Z</time>
      </trkpt>
      <trkpt lat="44.945535" lon="6.404153">
        <ele>2837.9</ele>
        <time>2020-07-08T09:15:21Z</time>
      </trkpt>
      <trkpt lat="44.945588" lon="6.404063">
        <ele>2839.8</ele>
        <time>2020-07-08T09:15:30Z</time>
      </trkpt>
      <trkpt lat="44.945625" lon="6.403958">
        <ele>2841.4</ele>
        <time>2020-07-08T09:15:39Z</time>
      </trkpt>
      <trkpt lat="44.945658" lon="6.403847">
        <ele>2842.5</ele>
        <time>2020-07-08T09:15:48Z</time>
      </trkpt>
      <trkpt lat="44.945687" lon="6.403728">
        <ele>2843.7</ele>
        <time>2020-07-08T09:15:58Z</time>
      </trkpt>
      <trkpt lat="44.945707" lon="6.403617">
        <ele>2844.9</ele>
        <time>2020-07-08T09:16:07Z</time>
      </trkpt>
      <trkpt lat="44.945743" lon="6.403507">
        <ele>2846.3</ele>
        <time>2020-07-08T09:16:17Z</time>
      </trkpt>
      <trkpt lat="44.945778" lon="6.403400">
        <ele>2847.7</ele>
        <time>2020-07-08T09:16:26Z</time>
      </trkpt>
      <trkpt lat="44.945812" lon="6.403287">
        <ele>2848.9</ele>
        <time>2020-07-08T09:16:36Z</time>
      </trkpt>
      <trkpt lat="44.945840" lon="6.403175">
        <ele>2850.2</ele>
        <time>2020-07-08T09:16:45Z</time>
      </trkpt>
      <trkpt lat="44.945875" lon="6.403067">
        <ele>2851.4</ele>
        <time>2020-07-08T09:16:54Z</time>
      </trkpt>
      <trkpt lat="44.945903" lon="6.402947">
        <ele>2852.3</ele>
        <time>2020-07-08T09:17:05Z</time>
      </trkpt>
      <trkpt lat="44.945935" lon="6.402832">
        <ele>2853.6</ele>
        <time>2020-07-08T09:17:15Z</time>
      </trkpt>
      <trkpt lat="44.945963" lon="6.402717">
        <ele>2854.9</ele>
        <time>2020-07-08T09:17:25Z</time>
      </trkpt>
      <trkpt lat="44.945997" lon="6.402602">
        <ele>2856.2</ele>
        <time>2020-07-08T09:17:35Z</time>
      </trkpt>
      <trkpt lat="44.946022" lon="6.402497">
        <ele>2857.4</ele>
        <time>2020-07-08T09:17:43Z</time>
      </trkpt>
      <trkpt lat="44.946048" lon="6.402378">
        <ele>2858.6</ele>
        <time>2020-07-08T09:17:53Z</time>
      </trkpt>
      <trkpt lat="44.946068" lon="6.402262">
        <ele>2859.8</ele>
        <time>2020-07-08T09:18:02Z</time>
      </trkpt>
      <trkpt lat="44.946095" lon="6.402143">
        <ele>2860.6</ele>
        <time>2020-07-08T09:18:11Z</time>
      </trkpt>
      <trkpt lat="44.946112" lon="6.402030">
        <ele>2861.7</ele>
        <time>2020-07-08T09:18:20Z</time>
      </trkpt>
      <trkpt lat="44.946128" lon="6.401913">
        <ele>2862.9</ele>
        <time>2020-07-08T09:18:29Z</time>
      </trkpt>
      <trkpt lat="44.946147" lon="6.401795">
        <ele>2864.0</ele>
        <time>2020-07-08T09:18:38Z</time>
      </trkpt>
      <trkpt lat="44.946172" lon="6.401675">
        <ele>2865.0</ele>
        <time>2020-07-08T09:18:47Z</time>
      </trkpt>
      <trkpt lat="44.946213" lon="6.401577">
        <ele>2865.9</ele>
        <time>2020-07-08T09:18:55Z</time>
      </trkpt>
      <trkpt lat="44.946247" lon="6.401460">
        <ele>2867.5</ele>
        <time>2020-07-08T09:19:04Z</time>
      </trkpt>
      <trkpt lat="44.946282" lon="6.401347">
        <ele>2869.7</ele>
        <time>2020-07-08T09:19:13Z</time>
      </trkpt>
      <trkpt lat="44.946317" lon="6.401240">
        <ele>2871.3</ele>
        <time>2020-07-08T09:19:22Z</time>
      </trkpt>
      <trkpt lat="44.946348" lon="6.401132">
        <ele>2873.5</ele>
        <time>2020-07-08T09:19:31Z</time>
      </trkpt>
      <trkpt lat="44.946383" lon="6.401027">
        <ele>2875.2</ele>
        <time>2020-07-08T09:19:40Z</time>
      </trkpt>
      <trkpt lat="44.946430" lon="6.400927">
        <ele>2877.4</ele>
        <time>2020-07-08T09:19:49Z</time>
      </trkpt>
      <trkpt lat="44.946482" lon="6.400828">
        <ele>2879.9</ele>
        <time>2020-07-08T09:19:59Z</time>
      </trkpt>
      <trkpt lat="44.946528" lon="6.400727">
        <ele>2882.4</ele>
        <time>2020-07-08T09:20:09Z</time>
      </trkpt>
      <trkpt lat="44.946580" lon="6.400638">
        <ele>2884.3</ele>
        <time>2020-07-08T09:20:19Z</time>
      </trkpt>
      <trkpt lat="44.946622" lon="6.400535">
        <ele>2886.6</ele>
        <time>2020-07-08T09:20:28Z</time>
      </trkpt>
      <trkpt lat="44.946670" lon="6.400438">
        <ele>2888.6</ele>
        <time>2020-07-08T09:20:38Z</time>
      </trkpt>
      <trkpt lat="44.946728" lon="6.400352">
        <ele>2890.5</ele>
        <time>2020-07-08T09:20:48Z</time>
      </trkpt>
      <trkpt lat="44.946778" lon="6.400262">
        <ele>2891.7</ele>
        <time>2020-07-08T09:20:58Z</time>
      </trkpt>
      <trkpt lat="44.946838" lon="6.400178">
        <ele>2892.4</ele>
        <time>2020-07-08T09:21:10Z</time>
      </trkpt>
      <trkpt lat="44.946882" lon="6.400073">
        <ele>2892.9</ele>
        <time>2020-07-08T09:21:20Z</time>
      </trkpt>
      <trkpt lat="44.946925" lon="6.399970">
        <ele>2894.4</ele>
        <time>2020-07-08T09:21:29Z</time>
      </trkpt>
      <trkpt lat="44.946955" lon="6.399863">
        <ele>2896.1</ele>
        <time>2020-07-08T09:21:38Z</time>
      </trkpt>
      <trkpt lat="44.946978" lon="6.399742">
        <ele>2897.9</ele>
        <time>2020-07-08T09:21:49Z</time>
      </trkpt>
      <trkpt lat="44.947008" lon="6.399627">
        <ele>2900.2</ele>
        <time>2020-07-08T09:21:59Z</time>
      </trkpt>
      <trkpt lat="44.947047" lon="6.399522">
        <ele>2901.8</ele>
        <time>2020-07-08T09:22:10Z</time>
      </trkpt>
      <trkpt lat="44.947080" lon="6.399407">
        <ele>2903.6</ele>
        <time>2020-07-08T09:22:21Z</time>
      </trkpt>
      <trkpt lat="44.947117" lon="6.399302">
        <ele>2905.4</ele>
        <time>2020-07-08T09:22:31Z</time>
      </trkpt>
      <trkpt lat="44.947158" lon="6.399197">
        <ele>2907.9</ele>
        <time>2020-07-08T09:22:42Z</time>
      </trkpt>
      <trkpt lat="44.947208" lon="6.399102">
        <ele>2911.8</ele>
        <time>2020-07-08T09:22:54Z</time>
      </trkpt>
      <trkpt lat="44.947243" lon="6.398992">
        <ele>2915.3</ele>
        <time>2020-07-08T09:23:08Z</time>
      </trkpt>
      <trkpt lat="44.947262" lon="6.398873">
        <ele>2919.1</ele>
        <time>2020-07-08T09:23:21Z</time>
      </trkpt>
      <trkpt lat="44.947270" lon="6.398755">
        <ele>2921.4</ele>
        <time>2020-07-08T09:23:33Z</time>
      </trkpt>
      <trkpt lat="44.947255" lon="6.398633">
        <ele>2923.4</ele>
        <time>2020-07-08T09:23:46Z</time>
      </trkpt>
      <trkpt lat="44.947223" lon="6.398523">
        <ele>2925.9</ele>
        <time>2020-07-08T09:24:01Z</time>
      </trkpt>
      <trkpt lat="44.947195" lon="6.398403">
        <ele>2928.9</ele>
        <time>2020-07-08T09:24:16Z</time>
      </trkpt>
      <trkpt lat="44.947190" lon="6.398277">
        <ele>2931.2</ele>
        <time>2020-07-08T09:24:28Z</time>
      </trkpt>
      <trkpt lat="44.947202" lon="6.398153">
        <ele>2933.3</ele>
        <time>2020-07-08T09:24:39Z</time>
      </trkpt>
      <trkpt lat="44.947258" lon="6.398068">
        <ele>2935.9</ele>
        <time>2020-07-08T09:24:49Z</time>
      </trkpt>
      <trkpt lat="44.947328" lon="6.397990">
        <ele>2939.5</ele>
        <time>2020-07-08T09:25:02Z</time>
      </trkpt>
      <trkpt lat="44.947382" lon="6.397892">
        <ele>2942.7</ele>
        <time>2020-07-08T09:25:14Z</time>
      </trkpt>
      <trkpt lat="44.947408" lon="6.397772">
        <ele>2945.8</ele>
        <time>2020-07-08T09:25:26Z</time>
      </trkpt>
      <trkpt lat="44.947435" lon="6.397652">
        <ele>2949.0</ele>
        <time>2020-07-08T09:25:39Z</time>
      </trkpt>
      <trkpt lat="44.947472" lon="6.397542">
        <ele>2952.6</ele>
        <time>2020-07-08T09:25:54Z</time>
      </trkpt>
      <trkpt lat="44.947507" lon="6.397430">
        <ele>2956.3</ele>
        <time>2020-07-08T09:26:20Z</time>
      </trkpt>
      <trkpt lat="44.947528" lon="6.397313">
        <ele>2959.3</ele>
        <time>2020-07-08T09:26:33Z</time>
      </trkpt>
      <trkpt lat="44.947550" lon="6.397202">
        <ele>2961.3</ele>
        <time>2020-07-08T09:26:43Z</time>
      </trkpt>
      <trkpt lat="44.947558" lon="6.397080">
        <ele>2962.8</ele>
        <time>2020-07-08T09:26:53Z</time>
      </trkpt>
      <trkpt lat="44.947562" lon="6.396958">
        <ele>2965.2</ele>
        <time>2020-07-08T09:27:04Z</time>
      </trkpt>
      <trkpt lat="44.947582" lon="6.396847">
        <ele>2967.1</ele>
        <time>2020-07-08T09:27:14Z</time>
      </trkpt>
      <trkpt lat="44.947610" lon="6.396727">
        <ele>2969.2</ele>
        <time>2020-07-08T09:27:24Z</time>
      </trkpt>
      <trkpt lat="44.947638" lon="6.396612">
        <ele>2971.2</ele>
        <time>2020-07-08T09:27:33Z</time>
      </trkpt>
      <trkpt lat="44.947670" lon="6.396493">
        <ele>2972.9</ele>
        <time>2020-07-08T09:27:43Z</time>
      </trkpt>
      <trkpt lat="44.947690" lon="6.396382">
        <ele>2974.1</ele>
        <time>2020-07-08T09:27:52Z</time>
      </trkpt>
      <trkpt lat="44.947707" lon="6.396268">
        <ele>2975.5</ele>
        <time>2020-07-08T09:28:01Z</time>
      </trkpt>
      <trkpt lat="44.947717" lon="6.396147">
        <ele>2977.5</ele>
        <time>2020-07-08T09:28:11Z</time>
      </trkpt>
      <trkpt lat="44.947733" lon="6.396023">
        <ele>2978.5</ele>
        <time>2020-07-08T09:28:21Z</time>
      </trkpt>
      <trkpt lat="44.947752" lon="6.395905">
        <ele>2979.7</ele>
        <time>2020-07-08T09:28:30Z</time>
      </trkpt>
      <trkpt lat="44.947778" lon="6.395795">
        <ele>2980.7</ele>
        <time>2020-07-08T09:28:38Z</time>
      </trkpt>
      <trkpt lat="44.947780" lon="6.395680">
        <ele>2980.5</ele>
        <time>2020-07-08T09:29:09Z</time>
      </trkpt>
      <trkpt lat="44.947795" lon="6.395558">
        <ele>2981.4</ele>
        <time>2020-07-08T09:29:35Z</time>
      </trkpt>
      <trkpt lat="44.947827" lon="6.395455">
        <ele>2982.7</ele>
        <time>2020-07-08T09:36:01Z</time>
      </trkpt>
      <trkpt lat="44.947912" lon="6.395447">
        <ele>2985.0</ele>
        <time>2020-07-08T09:36:22Z</time>
      </trkpt>
      <trkpt lat="44.947985" lon="6.395618">
        <ele>2992.0</ele>
        <time>2020-07-08T09:37:34Z</time>
      </trkpt>
      <trkpt lat="44.948122" lon="6.395797">
        <ele>2998.0</ele>
        <time>2020-07-08T09:39:19Z</time>
      </trkpt>
      <trkpt lat="44.948157" lon="6.395797">
        <ele>2999.6</ele>
        <time>2020-07-08T09:40:17Z</time>
      </trkpt>
      <trkpt lat="44.948243" lon="6.395787">
        <ele>3004.5</ele>
        <time>2020-07-08T09:40:37Z</time>
      </trkpt>
      <trkpt lat="44.948325" lon="6.395805">
        <ele>3008.6</ele>
        <time>2020-07-08T09:41:01Z</time>
      </trkpt>
      <trkpt lat="44.948413" lon="6.395815">
        <ele>3013.9</ele>
        <time>2020-07-08T09:41:20Z</time>
      </trkpt>
      <trkpt lat="44.948487" lon="6.395880">
        <ele>3016.9</ele>
        <time>2020-07-08T09:41:34Z</time>
      </trkpt>
      <trkpt lat="44.948563" lon="6.395938">
        <ele>3020.3</ele>
        <time>2020-07-08T09:41:47Z</time>
      </trkpt>
      <trkpt lat="44.948627" lon="6.396020">
        <ele>3022.2</ele>
        <time>2020-07-08T09:41:59Z</time>
      </trkpt>
      <trkpt lat="44.948688" lon="6.396103">
        <ele>3023.8</ele>
        <time>2020-07-08T09:42:08Z</time>
      </trkpt>
      <trkpt lat="44.948767" lon="6.396143">
        <ele>3026.3</ele>
        <time>2020-07-08T09:42:18Z</time>
      </trkpt>
      <trkpt lat="44.948842" lon="6.396203">
        <ele>3028.7</ele>
        <time>2020-07-08T09:42:28Z</time>
      </trkpt>
      <trkpt lat="44.948920" lon="6.396240">
        <ele>3031.4</ele>
        <time>2020-07-08T09:42:38Z</time>
      </trkpt>
      <trkpt lat="44.949002" lon="6.396262">
        <ele>3034.1</ele>
        <time>2020-07-08T09:42:48Z</time>
      </trkpt>
      <trkpt lat="44.949083" lon="6.396248">
        <ele>3037.8</ele>
        <time>2020-07-08T09:43:00Z</time>
      </trkpt>
      <trkpt lat="44.949167" lon="6.396277">
        <ele>3041.2</ele>
        <time>2020-07-08T09:43:13Z</time>
      </trkpt>
      <trkpt lat="44.949248" lon="6.396325">
        <ele>3044.9</ele>
        <time>2020-07-08T09:43:30Z</time>
      </trkpt>
      <trkpt lat="44.949302" lon="6.396423">
        <ele>3047.2</ele>
        <time>2020-07-08T09:43:42Z</time>
      </trkpt>
      <trkpt lat="44.949375" lon="6.396490">
        <ele>3049.8</ele>
        <time>2020-07-08T09:43:55Z</time>
      </trkpt>
      <trkpt lat="44.949445" lon="6.396565">
        <ele>3051.6</ele>
        <time>2020-07-08T09:44:08Z</time>
      </trkpt>
      <trkpt lat="44.949510" lon="6.396643">
        <ele>3052.9</ele>
        <time>2020-07-08T09:44:19Z</time>
      </trkpt>
      <trkpt lat="44.949565" lon="6.396735">
        <ele>3053.7</ele>
        <time>2020-07-08T09:44:30Z</time>
      </trkpt>
      <trkpt lat="44.949638" lon="6.396803">
        <ele>3054.7</ele>
        <time>2020-07-08T09:44:41Z</time>
      </trkpt>
      <trkpt lat="44.949718" lon="6.396837">
        <ele>3055.9</ele>
        <time>2020-07-08T09:44:53Z</time>
      </trkpt>
      <trkpt lat="44.949798" lon="6.396885">
        <ele>3056.8</ele>
        <time>2020-07-08T09:45:07Z</time>
      </trkpt>
      <trkpt lat="44.949847" lon="6.396982">
        <ele>3057.0</ele>
        <time>2020-07-08T09:45:19Z</time>
      </trkpt>
      <trkpt lat="44.949915" lon="6.397053">
        <ele>3058.3</ele>
        <time>2020-07-08T09:48:16Z</time>
      </trkpt>
      <trkpt lat="44.949978" lon="6.397128">
        <ele>3059.8</ele>
        <time>2020-07-08T09:48:26Z</time>
      </trkpt>
      <trkpt lat="44.950065" lon="6.397150">
        <ele>3061.0</ele>
        <time>2020-07-08T09:48:36Z</time>
      </trkpt>
      <trkpt lat="44.950137" lon="6.397225">
        <ele>3063.0</ele>
        <time>2020-07-08T09:48:46Z</time>
      </trkpt>
      <trkpt lat="44.950215" lon="6.397283">
        <ele>3064.6</ele>
        <time>2020-07-08T09:48:56Z</time>
      </trkpt>
      <trkpt lat="44.950260" lon="6.397390">
        <ele>3068.6</ele>
        <time>2020-07-08T09:49:13Z</time>
      </trkpt>
      <trkpt lat="44.950312" lon="6.397487">
        <ele>3072.6</ele>
        <time>2020-07-08T09:49:28Z</time>
      </trkpt>
      <trkpt lat="44.950392" lon="6.397535">
        <ele>3076.5</ele>
        <time>2020-07-08T09:49:41Z</time>
      </trkpt>
      <trkpt lat="44.950478" lon="6.397567">
        <ele>3080.0</ele>
        <time>2020-07-08T09:49:54Z</time>
      </trkpt>
      <trkpt lat="44.950567" lon="6.397578">
        <ele>3083.0</ele>
        <time>2020-07-08T09:50:05Z</time>
      </trkpt>
      <trkpt lat="44.950652" lon="6.397585">
        <ele>3085.7</ele>
        <time>2020-07-08T09:50:14Z</time>
      </trkpt>
      <trkpt lat="44.950733" lon="6.397592">
        <ele>3088.5</ele>
        <time>2020-07-08T09:50:22Z</time>
      </trkpt>
      <trkpt lat="44.950815" lon="6.397613">
        <ele>3091.3</ele>
        <time>2020-07-08T09:50:31Z</time>
      </trkpt>
      <trkpt lat="44.950863" lon="6.397715">
        <ele>3092.7</ele>
        <time>2020-07-08T09:50:51Z</time>
      </trkpt>
      <trkpt lat="44.950940" lon="6.397778">
        <ele>3095.9</ele>
        <time>2020-07-08T09:51:14Z</time>
      </trkpt>
      <trkpt lat="44.951017" lon="6.397843">
        <ele>3100.9</ele>
        <time>2020-07-08T09:51:34Z</time>
      </trkpt>
      <trkpt lat="44.951105" lon="6.397840">
        <ele>3106.1</ele>
        <time>2020-07-08T09:51:54Z</time>
      </trkpt>
      <trkpt lat="44.951182" lon="6.397905">
        <ele>3112.2</ele>
        <time>2020-07-08T09:52:18Z</time>
      </trkpt>
      <trkpt lat="44.951238" lon="6.398003">
        <ele>3115.2</ele>
        <time>2020-07-08T09:52:34Z</time>
      </trkpt>
      <trkpt lat="44.951237" lon="6.398065">
        <ele>3116.8</ele>
        <time>2020-07-08T09:53:07Z</time>
      </trkpt>
      <trkpt lat="44.951228" lon="6.398183">
        <ele>3120.6</ele>
        <time>2020-07-08T09:53:28Z</time>
      </trkpt>
      <trkpt lat="44.951205" lon="6.398305">
        <ele>3123.9</ele>
        <time>2020-07-08T09:53:47Z</time>
      </trkpt>
      <trkpt lat="44.951190" lon="6.398425">
        <ele>3126.6</ele>
        <time>2020-07-08T09:54:14Z</time>
      </trkpt>
      <trkpt lat="44.951163" lon="6.398542">
        <ele>3129.9</ele>
        <time>2020-07-08T09:54:28Z</time>
      </trkpt>
      <trkpt lat="44.951140" lon="6.398660">
        <ele>3133.6</ele>
        <time>2020-07-08T09:54:45Z</time>
      </trkpt>
      <trkpt lat="44.951137" lon="6.398785">
        <ele>3137.6</ele>
        <time>2020-07-08T09:55:00Z</time>
      </trkpt>
      <trkpt lat="44.951192" lon="6.398880">
        <ele>3143.1</ele>
        <time>2020-07-08T09:55:19Z</time>
      </trkpt>
      <trkpt lat="44.951265" lon="6.398950">
        <ele>3146.9</ele>
        <time>2020-07-08T09:55:38Z</time>
      </trkpt>
      <trkpt lat="44.951318" lon="6.399048">
        <ele>3153.4</ele>
        <time>2020-07-08T09:56:04Z</time>
      </trkpt>
      <trkpt lat="44.951403" lon="6.399063">
        <ele>3158.6</ele>
        <time>2020-07-08T09:56:23Z</time>
      </trkpt>
      <trkpt lat="44.951492" lon="6.399077">
        <ele>3162.4</ele>
        <time>2020-07-08T09:56:51Z</time>
      </trkpt>
      <trkpt lat="44.951565" lon="6.399148">
        <ele>3166.6</ele>
        <time>2020-07-08T09:57:25Z</time>
      </trkpt>
      <trkpt lat="44.951627" lon="6.399240">
        <ele>3171.8</ele>
        <time>2020-07-08T09:57:56Z</time>
      </trkpt>
      <trkpt lat="44.951690" lon="6.399320">
        <ele>3176.1</ele>
        <time>2020-07-08T09:58:36Z</time>
      </trkpt>
      <trkpt lat="44.951727" lon="6.399432">
        <ele>3180.7</ele>
        <time>2020-07-08T09:58:59Z</time>
      </trkpt>
      <trkpt lat="44.951787" lon="6.399522">
        <ele>3185.6</ele>
        <time>2020-07-08T09:59:23Z</time>
      </trkpt>
      <trkpt lat="44.951867" lon="6.399563">
        <ele>3188.7</ele>
        <time>2020-07-08T09:59:50Z</time>
      </trkpt>
      <trkpt lat="44.951925" lon="6.399660">
        <ele>3194.7</ele>
        <time>2020-07-08T10:00:30Z</time>
      </trkpt>
      <trkpt lat="44.952008" lon="6.399635">
        <ele>3198.3</ele>
        <time>2020-07-08T10:00:53Z</time>
      </trkpt>
      <trkpt lat="44.952097" lon="6.399632">
        <ele>3201.1</ele>
        <time>2020-07-08T10:01:14Z</time>
      </trkpt>
      <trkpt lat="44.952165" lon="6.399700">
        <ele>3204.4</ele>
        <time>2020-07-08T10:01:49Z</time>
      </trkpt>
      <trkpt lat="44.952237" lon="6.399772">
        <ele>3206.6</ele>
        <time>2020-07-08T10:02:08Z</time>
      </trkpt>
      <trkpt lat="44.952323" lon="6.399783">
        <ele>3214.9</ele>
        <time>2020-07-08T10:09:54Z</time>
      </trkpt>
      <trkpt lat="44.952405" lon="6.399748">
        <ele>3218.4</ele>
        <time>2020-07-08T10:10:03Z</time>
      </trkpt>
      <trkpt lat="44.952480" lon="6.399708">
        <ele>3222.3</ele>
        <time>2020-07-08T10:10:11Z</time>
      </trkpt>
      <trkpt lat="44.952537" lon="6.399622">
        <ele>3226.1</ele>
        <time>2020-07-08T10:10:20Z</time>
      </trkpt>
      <trkpt lat="44.952577" lon="6.399518">
        <ele>3230.7</ele>
        <time>2020-07-08T10:10:33Z</time>
      </trkpt>
      <trkpt lat="44.952563" lon="6.399397">
        <ele>3234.4</ele>
        <time>2020-07-08T10:11:18Z</time>
      </trkpt>
      <trkpt lat="44.952545" lon="6.399275">
        <ele>3238.1</ele>
        <time>2020-07-08T10:11:37Z</time>
      </trkpt>
      <trkpt lat="44.952523" lon="6.399157">
        <ele>3241.7</ele>
        <time>2020-07-08T10:12:25Z</time>
      </trkpt>
      <trkpt lat="44.952538" lon="6.399033">
        <ele>3245.1</ele>
        <time>2020-07-08T10:12:51Z</time>
      </trkpt>
      <trkpt lat="44.952547" lon="6.398917">
        <ele>3247.5</ele>
        <time>2020-07-08T10:13:04Z</time>
      </trkpt>
      <trkpt lat="44.952552" lon="6.398798">
        <ele>3250.5</ele>
        <time>2020-07-08T10:13:21Z</time>
      </trkpt>
      <trkpt lat="44.952617" lon="6.398713">
        <ele>3254.9</ele>
        <time>2020-07-08T10:13:43Z</time>
      </trkpt>
      <trkpt lat="44.952668" lon="6.398618">
        <ele>3257.7</ele>
        <time>2020-07-08T10:13:56Z</time>
      </trkpt>
      <trkpt lat="44.952732" lon="6.398530">
        <ele>3260.1</ele>
        <time>2020-07-08T10:14:10Z</time>
      </trkpt>
      <trkpt lat="44.952752" lon="6.398410">
        <ele>3261.8</ele>
        <time>2020-07-08T10:14:23Z</time>
      </trkpt>
      <trkpt lat="44.952785" lon="6.398295">
        <ele>3263.3</ele>
        <time>2020-07-08T10:14:37Z</time>
      </trkpt>
      <trkpt lat="44.952803" lon="6.398178">
        <ele>3265.0</ele>
        <time>2020-07-08T10:14:51Z</time>
      </trkpt>
      <trkpt lat="44.952837" lon="6.398068">
        <ele>3266.0</ele>
        <time>2020-07-08T10:16:13Z</time>
      </trkpt>
      <trkpt lat="44.952927" lon="6.397822">
        <ele>3280.0</ele>
        <time>2020-07-08T10:21:36Z</time>
      </trkpt>
      <trkpt lat="44.952967" lon="6.397710">
        <ele>3282.6</ele>
        <time>2020-07-08T10:22:01Z</time>
      </trkpt>
      <trkpt lat="44.953045" lon="6.397662">
        <ele>3284.7</ele>
        <time>2020-07-08T10:22:13Z</time>
      </trkpt>
      <trkpt lat="44.953128" lon="6.397643">
        <ele>3287.4</ele>
        <time>2020-07-08T10:22:29Z</time>
      </trkpt>
      <trkpt lat="44.953202" lon="6.397710">
        <ele>3292.6</ele>
        <time>2020-07-08T10:25:23Z</time>
      </trkpt>
      <trkpt lat="44.953267" lon="6.397772">
        <ele>3296.1</ele>
        <time>2020-07-08T10:25:46Z</time>
      </trkpt>
      <trkpt lat="44.953332" lon="6.397852">
        <ele>3301.2</ele>
        <time>2020-07-08T10:26:06Z</time>
      </trkpt>
      <trkpt lat="44.953413" lon="6.397897">
        <ele>3306.0</ele>
        <time>2020-07-08T10:26:30Z</time>
      </trkpt>
      <trkpt lat="44.953492" lon="6.397953">
        <ele>3311.2</ele>
        <time>2020-07-08T10:27:13Z</time>
      </trkpt>
      <trkpt lat="44.953578" lon="6.397975">
        <ele>3314.1</ele>
        <time>2020-07-08T10:27:27Z</time>
      </trkpt>
      <trkpt lat="44.953658" lon="6.397943">
        <ele>3315.0</ele>
        <time>2020-07-08T10:27:39Z</time>
      </trkpt>
      <trkpt lat="44.953732" lon="6.397878">
        <ele>3315.9</ele>
        <time>2020-07-08T10:27:53Z</time>
      </trkpt>
      <trkpt lat="44.953810" lon="6.397833">
        <ele>3317.3</ele>
        <time>2020-07-08T10:28:11Z</time>
      </trkpt>
      <trkpt lat="44.953895" lon="6.397798">
        <ele>3319.2</ele>
        <time>2020-07-08T10:28:43Z</time>
      </trkpt>
      <trkpt lat="44.953948" lon="6.397702">
        <ele>3318.7</ele>
        <time>2020-07-08T10:29:02Z</time>
      </trkpt>
      <trkpt lat="44.954002" lon="6.397600">
        <ele>3318.8</ele>
        <time>2020-07-08T10:29:40Z</time>
      </trkpt>
      <trkpt lat="44.954047" lon="6.397493">
        <ele>3318.8</ele>
        <time>2020-07-08T10:30:02Z</time>
      </trkpt>
      <trkpt lat="44.954092" lon="6.397390">
        <ele>3319.4</ele>
        <time>2020-07-08T10:30:32Z</time>
      </trkpt>
      <trkpt lat="44.954137" lon="6.397280">
        <ele>3319.4</ele>
        <time>2020-07-08T10:30:51Z</time>
      </trkpt>
      <trkpt lat="44.954177" lon="6.397168">
        <ele>3318.9</ele>
        <time>2020-07-08T10:31:06Z</time>
      </trkpt>
      <trkpt lat="44.954183" lon="6.397124">
        <ele>3318.0</ele>
        <time>2020-07-08T10:32:03Z</time>
      </trkpt>
      <trkpt lat="44.954272" lon="6.396817">
        <ele>3322.3</ele>
        <time>2020-07-08T10:33:59Z</time>
      </trkpt>
      <trkpt lat="44.954290" lon="6.396760">
        <ele>3324.2</ele>
        <time>2020-07-08T10:34:36Z</time>
      </trkpt>
      <trkpt lat="44.954323" lon="6.396645">
        <ele>3327.8</ele>
        <time>2020-07-08T10:34:55Z</time>
      </trkpt>
      <trkpt lat="44.954362" lon="6.396533">
        <ele>3332.4</ele>
        <time>2020-07-08T10:35:22Z</time>
      </trkpt>
      <trkpt lat="44.954423" lon="6.396447">
        <ele>3334.7</ele>
        <time>2020-07-08T10:35:38Z</time>
      </trkpt>
      <trkpt lat="44.954478" lon="6.396352">
        <ele>3336.4</ele>
        <time>2020-07-08T10:35:52Z</time>
      </trkpt>
      <trkpt lat="44.954515" lon="6.396242">
        <ele>3339.1</ele>
        <time>2020-07-08T10:36:07Z</time>
      </trkpt>
      <trkpt lat="44.954535" lon="6.396143">
        <ele>3342.2</ele>
        <time>2020-07-08T10:36:42Z</time>
      </trkpt>
      <trkpt lat="44.954540" lon="6.396040">
        <ele>3345.5</ele>
        <time>2020-07-08T10:37:07Z</time>
      </trkpt>
      <trkpt lat="44.954550" lon="6.395917">
        <ele>3349.0</ele>
        <time>2020-07-08T10:37:28Z</time>
      </trkpt>
      <trkpt lat="44.954537" lon="6.395798">
        <ele>3352.2</ele>
        <time>2020-07-08T10:38:07Z</time>
      </trkpt>
      <trkpt lat="44.954526" lon="6.395673">
        <ele>3355.0</ele>
        <time>2020-07-08T10:38:28Z</time>
      </trkpt>
      <trkpt lat="44.954632" lon="6.395383">
        <ele>3369.5</ele>
        <time>2020-07-08T10:43:50Z</time>
      </trkpt>
      <trkpt lat="44.954677" lon="6.395493">
        <ele>3369.0</ele>
        <time>2020-07-08T10:45:04Z</time>
      </trkpt>
      <trkpt lat="44.954685" lon="6.395345">
        <ele>3373.0</ele>
        <time>2020-07-08T10:46:08Z</time>
      </trkpt>
      <trkpt lat="44.954815" lon="6.395368">
        <ele>3383.3</ele>
        <time>2020-07-08T10:48:19Z</time>
      </trkpt>
      <trkpt lat="44.954833" lon="6.395245">
        <ele>3389.2</ele>
        <time>2020-07-08T10:48:40Z</time>
      </trkpt>
      <trkpt lat="44.954830" lon="6.395189">
        <ele>3391.0</ele>
        <time>2020-07-08T10:50:06Z</time>
      </trkpt>
      <trkpt lat="44.954917" lon="6.394925">
        <ele>3405.9</ele>
        <time>2020-07-08T10:56:46Z</time>
      </trkpt>
      <trkpt lat="44.955015" lon="6.394910">
        <ele>3413.0</ele>
        <time>2020-07-08T10:56:47Z</time>
      </trkpt>
      <trkpt lat="44.955076" lon="6.394878">
        <ele>3420.0</ele>
        <time>2020-07-08T11:04:23Z</time>
      </trkpt>
      <trkpt lat="44.955091" lon="6.394693">
        <ele>3428.0</ele>
        <time>2020-07-08T11:05:28Z</time>
      </trkpt>
      <trkpt lat="44.955125" lon="6.394428">
        <ele>3439.7</ele>
        <time>2020-07-08T11:06:32Z</time>
      </trkpt>
      <trkpt lat="44.955100" lon="6.394360">
        <ele>3441.4</ele>
        <time>2020-07-08T11:06:57Z</time>
      </trkpt>
      <trkpt lat="44.955097" lon="6.394248">
        <ele>3444.6</ele>
        <time>2020-07-08T11:07:31Z</time>
      </trkpt>
      <trkpt lat="44.955090" lon="6.394127">
        <ele>3447.6</ele>
        <time>2020-07-08T11:07:49Z</time>
      </trkpt>
      <trkpt lat="44.955047" lon="6.394017">
        <ele>3450.6</ele>
        <time>2020-07-08T11:08:07Z</time>
      </trkpt>
      <trkpt lat="44.955000" lon="6.393913">
        <ele>3452.3</ele>
        <time>2020-07-08T11:08:28Z</time>
      </trkpt>
      <trkpt lat="44.954942" lon="6.393857">
        <ele>3455.9</ele>
        <time>2020-07-08T11:08:56Z</time>
      </trkpt>
      <trkpt lat="44.954873" lon="6.393777">
        <ele>3461.0</ele>
        <time>2020-07-08T11:09:33Z</time>
      </trkpt>
      <trkpt lat="44.954667" lon="6.393635">
        <ele>3479.1</ele>
        <time>2020-07-08T11:11:00Z</time>
      </trkpt>
      <trkpt lat="44.954605" lon="6.393572">
        <ele>3484.0</ele>
        <time>2020-07-08T11:11:35Z</time>
      </trkpt>
      <trkpt lat="44.954598" lon="6.393450">
        <ele>3488.5</ele>
        <time>2020-07-08T11:12:20Z</time>
      </trkpt>
      <trkpt lat="44.954600" lon="6.393323">
        <ele>3492.9</ele>
        <time>2020-07-08T11:12:35Z</time>
      </trkpt>
      <trkpt lat="44.954627" lon="6.393203">
        <ele>3495.0</ele>
        <time>2020-07-08T11:12:49Z</time>
      </trkpt>
      <trkpt lat="44.954609" lon="6.392621">
        <ele>3522.0</ele>
        <time>2020-07-08T11:19:32Z</time>
      </trkpt>
      <trkpt lat="44.954534" lon="6.392520">
        <ele>3521.0</ele>
        <time>2020-07-08T12:08:23Z</time>
      </trkpt>
    </trkseg>
  </trk>
</gpx>
